Time;durP1;ratioP1;P1;durP2;ratioP2;P2;SDS_P1;SDS_P2;PMS_P1;PMS_P2;Temp;Humidity;BMP_temperature;BMP_pressure;BME280_temperature;BME280_humidity;BME280_pressure;Samples;Min_cycle;Max_cycle;Signal;HPM_P1;HPM_P2
2023/04/19 00:01:13;;;;;;;;;;;8.00;99.90;;;;;;5063818;28;19947;-69
2023/04/19 00:03:40;;;;;;;;;;;7.90;99.90;;;;;;5064644;28;19988;-69
2023/04/19 00:06:07;;;;;;;;;;;7.90;99.90;;;;;;5064725;28;19991;-68
2023/04/19 00:08:33;;;;;;;;;;;7.90;99.90;;;;;;5064323;28;19921;-69
2023/04/19 00:11:00;;;;;;;;;;;7.90;99.90;;;;;;5064214;28;20228;-69
2023/04/19 00:13:27;;;;;;;;;;;7.90;99.90;;;;;;5064772;28;19989;-69
2023/04/19 00:15:53;;;;;;;;;;;7.90;99.90;;;;;;5064478;28;20071;-69
2023/04/19 00:18:21;;;;;;;;;;;7.90;99.90;;;;;;5064455;28;19927;-69
2023/04/19 00:20:48;;;;;;;;;;;7.90;99.90;;;;;;5064438;28;19921;-69
2023/04/19 00:23:15;;;;;;;;;;;7.90;99.90;;;;;;5064567;28;19920;-69
2023/04/19 00:25:41;;;;;;;;;;;7.90;99.90;;;;;;5064349;28;19920;-70
2023/04/19 00:28:08;;;;;;;;;;;8.00;99.90;;;;;;5064076;28;19963;-70
2023/04/19 00:30:35;;;;;;;;;;;8.00;99.90;;;;;;5064149;28;19921;-69
2023/04/19 00:33:01;;;;;;;;;;;8.00;99.90;;;;;;5064333;28;19991;-69
2023/04/19 00:35:29;;;;;;;;;;;8.00;99.90;;;;;;5063916;28;20379;-69
2023/04/19 00:37:56;;;;;;;;;;;8.00;99.90;;;;;;5063648;28;19927;-70
2023/04/19 00:40:22;;;;;;;;;;;7.90;99.90;;;;;;5063866;28;20193;-69
2023/04/19 00:42:49;;;;;;;;;;;7.90;99.90;;;;;;5063783;28;19920;-69
2023/04/19 00:45:34;;;;;;;;;;;7.90;99.90;;;;;;5121321;27;19936;-69
2023/04/19 00:48:01;;;;;;;;;;;7.90;99.90;;;;;;5121223;28;19920;-69
2023/04/19 00:50:28;;;;;;;;;;;7.90;99.90;;;;;;5121354;28;20111;-70
2023/04/19 00:52:55;;;;;;;;;;;7.90;99.90;;;;;;5121374;28;19965;-69
2023/04/19 00:55:22;;;;;;;;;;;7.90;99.90;;;;;;5107012;28;19984;-69
2023/04/19 00:57:50;;;;;;;;;;;7.90;99.90;;;;;;5100785;28;19921;-69
2023/04/19 01:00:17;;;;;;;;;;;7.90;99.90;;;;;;5100848;28;19921;-70
2023/04/19 01:02:45;;;;;;;;;;;7.80;99.90;;;;;;5105985;28;20157;-70
2023/04/19 01:05:12;;;;;;;;;;;7.80;99.90;;;;;;5113477;28;19920;-70
2023/04/19 01:07:38;;;;;;;;;;;7.80;99.90;;;;;;5100309;28;20150;-70
2023/04/19 01:10:05;;;;;;;;;;;7.80;99.90;;;;;;5100310;28;19999;-70
2023/04/19 01:12:32;;;;;;;;;;;7.70;99.90;;;;;;5100697;28;19941;-70
2023/04/19 01:14:59;;;;;;;;;;;7.70;99.90;;;;;;5100610;28;19987;-70
2023/04/19 01:17:26;;;;;;;;;;;7.70;99.90;;;;;;5100392;28;19958;-69
2023/04/19 01:20:00;;;;;;;;;;;7.70;99.90;;;;;;5113554;28;19926;-70
2023/04/19 01:22:28;;;;;;;;;;;7.70;99.90;;;;;;5120965;28;19920;-70
2023/04/19 01:24:56;;;;;;;;;;;7.70;99.90;;;;;;5120807;28;20007;-70
2023/04/19 01:27:22;;;;;;;;;;;7.70;99.90;;;;;;5120628;28;19948;-70
2023/04/19 01:29:49;;;;;;;;;;;7.70;99.90;;;;;;5120553;28;20223;-70
2023/04/19 01:32:16;;;;;;;;;;;7.70;99.90;;;;;;5120518;28;19920;-69
2023/04/19 01:34:42;;;;;;;;;;;7.70;99.90;;;;;;5120749;28;19920;-70
2023/04/19 01:37:09;;;;;;;;;;;7.70;99.90;;;;;;5120029;28;19991;-70
2023/04/19 01:39:37;;;;;;;;;;;7.70;99.90;;;;;;5121074;28;19951;-70
2023/04/19 01:42:04;;;;;;;;;;;7.80;99.90;;;;;;5120786;28;20034;-70
2023/04/19 01:44:30;;;;;;;;;;;7.70;99.90;;;;;;5132471;28;19926;-69
2023/04/19 01:46:57;;;;;;;;;;;7.70;99.90;;;;;;5140774;28;20163;-70
2023/04/19 01:49:23;;;;;;;;;;;7.70;99.90;;;;;;5140976;28;19986;-69
2023/04/19 01:51:50;;;;;;;;;;;7.70;99.90;;;;;;5120242;28;19999;-70
2023/04/19 01:54:17;;;;;;;;;;;7.70;99.90;;;;;;5120044;28;19991;-70
2023/04/19 01:56:46;;;;;;;;;;;7.60;99.90;;;;;;5125118;28;19926;-70
2023/04/19 01:59:12;;;;;;;;;;;7.60;99.90;;;;;;5126995;28;19988;-70
2023/04/19 02:01:39;;;;;;;;;;;7.60;99.90;;;;;;5126954;28;19955;-70
2023/04/19 02:04:06;;;;;;;;;;;7.60;99.90;;;;;;5126649;28;20271;-70
2023/04/19 02:06:33;;;;;;;;;;;7.50;99.90;;;;;;5108474;28;19920;-69
2023/04/19 02:08:59;;;;;;;;;;;7.50;99.90;;;;;;5106153;28;19956;-69
2023/04/19 02:11:26;;;;;;;;;;;7.50;99.90;;;;;;5106102;28;19983;-70
2023/04/19 02:13:54;;;;;;;;;;;7.50;99.90;;;;;;5106223;28;19983;-70
2023/04/19 02:16:21;;;;;;;;;;;7.50;99.90;;;;;;5105983;28;20212;-69
2023/04/19 02:18:48;;;;;;;;;;;7.50;99.90;;;;;;5106233;28;19926;-70
2023/04/19 02:21:14;;;;;;;;;;;7.50;99.90;;;;;;5106083;28;19920;-70
2023/04/19 02:23:41;;;;;;;;;;;7.50;99.90;;;;;;5106167;28;19927;-70
2023/04/19 02:26:08;;;;;;;;;;;7.50;99.90;;;;;;5105802;28;20164;-69
2023/04/19 02:28:34;;;;;;;;;;;7.50;99.90;;;;;;5105512;28;19920;-70
2023/04/19 02:31:05;;;;;;;;;;;7.50;99.90;;;;;;5105574;28;19983;-70
2023/04/19 02:33:32;;;;;;;;;;;7.50;99.90;;;;;;5105915;28;19978;-70
2023/04/19 02:35:59;;;;;;;;;;;7.50;99.90;;;;;;5105642;28;19927;-70
2023/04/19 02:38:25;;;;;;;;;;;7.50;99.90;;;;;;5105701;28;19979;-70
2023/04/19 02:40:52;;;;;;;;;;;7.50;99.90;;;;;;5105395;28;19955;-70
2023/04/19 02:43:19;;;;;;;;;;;7.50;99.90;;;;;;5105341;28;19927;-70
2023/04/19 02:45:45;;;;;;;;;;;7.50;99.90;;;;;;5115472;28;19987;-69
2023/04/19 02:48:13;;;;;;;;;;;7.50;99.90;;;;;;5126189;28;19920;-70
2023/04/19 02:50:40;;;;;;;;;;;7.60;99.90;;;;;;5126182;28;19919;-70
2023/04/19 02:53:06;;;;;;;;;;;7.60;99.90;;;;;;5109876;28;19987;-70
2023/04/19 02:55:33;;;;;;;;;;;7.60;99.90;;;;;;5104943;28;20066;-70
2023/04/19 02:58:00;;;;;;;;;;;7.60;99.90;;;;;;5105360;28;19942;-70
2023/04/19 03:00:26;;;;;;;;;;;7.60;99.90;;;;;;5105330;28;19955;-72
2023/04/19 03:02:54;;;;;;;;;;;7.60;99.90;;;;;;5112689;28;19919;-70
2023/04/19 03:05:22;;;;;;;;;;;7.60;99.90;;;;;;5120024;28;20093;-69
2023/04/19 03:07:49;;;;;;;;;;;7.60;99.90;;;;;;5104127;28;19920;-70
2023/04/19 03:10:16;;;;;;;;;;;7.60;99.90;;;;;;5105198;28;19988;-70
2023/04/19 03:12:42;;;;;;;;;;;7.60;99.90;;;;;;5104932;28;20279;-70
2023/04/19 03:15:10;;;;;;;;;;;7.60;99.90;;;;;;5105168;28;19963;-70
2023/04/19 03:17:36;;;;;;;;;;;7.60;99.90;;;;;;5104947;28;19955;-69
2023/04/19 03:20:08;;;;;;;;;;;7.50;99.90;;;;;;5105095;28;20170;-70
2023/04/19 03:22:36;;;;;;;;;;;7.50;99.90;;;;;;5105140;28;19920;-70
2023/04/19 03:25:03;;;;;;;;;;;7.50;99.90;;;;;;5104846;28;19927;-70
2023/04/19 03:27:30;;;;;;;;;;;7.50;99.90;;;;;;5104961;28;19955;-70
2023/04/19 03:29:56;;;;;;;;;;;7.50;99.90;;;;;;5104553;28;19955;-69
2023/04/19 03:32:23;;;;;;;;;;;7.50;99.90;;;;;;5104767;28;19920;-69
2023/04/19 03:34:49;;;;;;;;;;;7.50;99.90;;;;;;5104709;28;19983;-70
2023/04/19 03:37:16;;;;;;;;;;;7.50;99.90;;;;;;5104535;28;19996;-69
2023/04/19 03:39:44;;;;;;;;;;;7.50;99.90;;;;;;5104432;28;19988;-69
2023/04/19 03:42:11;;;;;;;;;;;7.40;99.90;;;;;;5104308;28;20203;-70
2023/04/19 03:44:37;;;;;;;;;;;7.30;99.90;;;;;;5104431;28;19979;-70
2023/04/19 03:47:04;;;;;;;;;;;7.30;99.90;;;;;;5104186;28;20170;-70
2023/04/19 03:49:31;;;;;;;;;;;7.30;99.90;;;;;;5104403;28;19926;-68
2023/04/19 03:51:57;;;;;;;;;;;7.30;99.90;;;;;;5104563;28;19987;-69
2023/04/19 03:54:24;;;;;;;;;;;7.30;99.90;;;;;;5104390;28;19983;-69
2023/04/19 03:56:52;;;;;;;;;;;7.30;99.90;;;;;;5103624;28;19920;-69
2023/04/19 03:59:18;;;;;;;;;;;7.20;99.90;;;;;;5104239;28;19926;-69
2023/04/19 04:01:46;;;;;;;;;;;7.20;99.90;;;;;;5104076;28;19979;-69
2023/04/19 04:04:12;;;;;;;;;;;7.20;99.90;;;;;;5103927;28;19991;-69
2023/04/19 04:06:39;;;;;;;;;;;7.20;99.90;;;;;;5103706;28;19926;-70
2023/04/19 04:09:06;;;;;;;;;;;7.20;99.90;;;;;;5104160;28;20187;-69
2023/04/19 04:11:33;;;;;;;;;;;7.20;99.90;;;;;;5103996;28;19962;-69
2023/04/19 04:14:01;;;;;;;;;;;7.30;99.90;;;;;;5104095;28;19926;-70
2023/04/19 04:16:27;;;;;;;;;;;7.30;99.90;;;;;;5103804;28;19926;-69
2023/04/19 04:18:54;;;;;;;;;;;7.20;99.90;;;;;;5103947;28;19920;-69
2023/04/19 04:21:23;;;;;;;;;;;7.20;99.90;;;;;;5104015;28;19924;-71
2023/04/19 04:23:50;;;;;;;;;;;7.30;99.90;;;;;;5103943;28;19924;-69
2023/04/19 04:26:18;;;;;;;;;;;7.20;99.90;;;;;;5105015;28;20151;-69
2023/04/19 04:28:46;;;;;;;;;;;7.30;99.90;;;;;;5124575;28;20199;-69
2023/04/19 04:31:16;;;;;;;;;;;7.30;99.90;;;;;;5124542;28;19924;-69
2023/04/19 04:33:44;;;;;;;;;;;7.30;99.90;;;;;;5124188;28;19965;-69
2023/04/19 04:36:11;;;;;;;;;;;7.40;99.90;;;;;;5123774;28;19919;-69
2023/04/19 04:38:38;;;;;;;;;;;7.40;99.90;;;;;;5123926;28;19920;-69
2023/04/19 04:41:04;;;;;;;;;;;7.40;99.90;;;;;;5123667;28;20262;-69
2023/04/19 04:43:32;;;;;;;;;;;7.30;99.90;;;;;;5123888;28;19926;-69
2023/04/19 04:45:59;;;;;;;;;;;7.30;99.90;;;;;;5123889;28;19926;-69
2023/04/19 04:48:27;;;;;;;;;;;7.30;99.90;;;;;;5123982;28;19920;-70
2023/04/19 04:50:54;;;;;;;;;;;7.40;99.90;;;;;;5123884;28;19926;-71
2023/04/19 04:53:20;;;;;;;;;;;7.40;99.90;;;;;;5124105;28;19988;-69
2023/04/19 04:55:47;;;;;;;;;;;7.40;99.90;;;;;;5123610;28;19995;-70
2023/04/19 04:58:14;;;;;;;;;;;7.40;99.90;;;;;;5123719;28;19978;-69
2023/04/19 05:00:40;;;;;;;;;;;7.40;99.90;;;;;;5123675;28;19964;-70
2023/04/19 05:03:07;;;;;;;;;;;7.40;99.90;;;;;;5123567;28;20287;-69
2023/04/19 05:05:35;;;;;;;;;;;7.50;99.90;;;;;;5123666;28;19920;-69
2023/04/19 05:08:01;;;;;;;;;;;7.50;99.90;;;;;;5123659;28;19920;-69
2023/04/19 05:10:28;;;;;;;;;;;7.50;99.90;;;;;;5123485;28;19920;-69
2023/04/19 05:12:55;;;;;;;;;;;7.50;99.90;;;;;;5123757;28;20148;-69
2023/04/19 05:15:22;;;;;;;;;;;7.50;99.90;;;;;;5123746;28;19927;-69
2023/04/19 05:17:48;;;;;;;;;;;7.60;99.90;;;;;;5103337;28;19983;-69
2023/04/19 05:20:15;;;;;;;;;;;7.60;99.90;;;;;;5103288;28;19987;-70
2023/04/19 05:22:43;;;;;;;;;;;7.60;99.90;;;;;;5102924;28;20279;-68
2023/04/19 05:25:10;;;;;;;;;;;7.60;99.90;;;;;;5106193;28;19982;-72
2023/04/19 05:27:36;;;;;;;;;;;7.70;99.90;;;;;;5123280;28;19926;-69
2023/04/19 05:30:03;;;;;;;;;;;7.70;99.90;;;;;;5123439;28;19920;-68
2023/04/19 05:32:30;;;;;;;;;;;7.70;99.90;;;;;;5127467;28;19919;-68
2023/04/19 05:34:57;;;;;;;;;;;7.80;99.90;;;;;;5125217;28;19920;-69
2023/04/19 05:37:24;;;;;;;;;;;7.80;99.90;;;;;;5106790;28;20169;-69
2023/04/19 05:39:52;;;;;;;;;;;7.80;99.90;;;;;;5106725;28;19991;-70
2023/04/19 05:42:18;;;;;;;;;;;7.80;99.90;;;;;;5106885;28;19942;-68
2023/04/19 05:44:45;;;;;;;;;;;7.80;99.90;;;;;;5105368;28;20280;-68
2023/04/19 05:47:12;;;;;;;;;;;7.90;99.90;;;;;;5107051;28;19951;-70
2023/04/19 05:49:39;;;;;;;;;;;7.90;99.90;;;;;;5106839;28;19987;-69
2023/04/19 05:52:05;;;;;;;;;;;7.90;99.90;;;;;;5106412;28;20283;-70
2023/04/19 05:54:34;;;;;;;;;;;7.90;99.90;;;;;;5105367;28;19986;-69
2023/04/19 05:57:03;;;;;;;;;;;7.90;99.90;;;;;;5105875;28;19920;-70
2023/04/19 05:59:29;;;;;;;;;;;7.90;99.90;;;;;;5106565;28;19951;-70
2023/04/19 06:01:56;;;;;;;;;;;7.90;99.90;;;;;;5106189;28;20226;-68
2023/04/19 06:04:22;;;;;;;;;;;7.90;99.90;;;;;;5120596;28;19926;-68
2023/04/19 06:06:49;;;;;;;;;;;8.00;99.90;;;;;;5125646;28;19926;-68
2023/04/19 06:09:16;;;;;;;;;;;8.00;99.90;;;;;;5126627;28;20006;-71
2023/04/19 06:11:43;;;;;;;;;;;8.10;99.90;;;;;;5126541;28;19924;-70
2023/04/19 06:14:12;;;;;;;;;;;8.20;99.90;;;;;;5126812;28;19942;-69
2023/04/19 06:16:39;;;;;;;;;;;8.20;99.90;;;;;;5126488;28;20149;-70
2023/04/19 06:19:06;;;;;;;;;;;8.10;99.90;;;;;;5126711;28;19919;-68
2023/04/19 06:21:33;;;;;;;;;;;8.20;99.90;;;;;;5126286;28;19920;-70
2023/04/19 06:24:00;;;;;;;;;;;8.20;99.90;;;;;;5126049;28;19986;-70
2023/04/19 06:26:26;;;;;;;;;;;8.30;99.90;;;;;;5126224;28;20126;-69
2023/04/19 06:28:53;;;;;;;;;;;8.30;99.90;;;;;;5125818;28;19919;-71
2023/04/19 06:31:21;;;;;;;;;;;8.40;99.90;;;;;;5126375;28;19990;-69
2023/04/19 06:33:47;;;;;;;;;;;8.40;99.90;;;;;;5126550;28;19926;-70
2023/04/19 06:36:14;;;;;;;;;;;8.50;99.90;;;;;;5125619;28;20275;-69
2023/04/19 06:38:43;;;;;;;;;;;8.50;99.90;;;;;;5125465;28;19990;-68
2023/04/19 06:41:10;;;;;;;;;;;8.40;99.90;;;;;;5125374;28;19935;-70
2023/04/19 06:43:38;;;;;;;;;;;8.40;99.90;;;;;;5126119;28;20007;-70
2023/04/19 06:46:05;;;;;;;;;;;8.30;99.90;;;;;;5125866;28;19954;-69
2023/04/19 06:48:33;;;;;;;;;;;8.30;99.90;;;;;;5125966;28;19977;-71
2023/04/19 06:51:00;;;;;;;;;;;8.30;99.90;;;;;;5125022;28;19924;-69
2023/04/19 06:53:26;;;;;;;;;;;8.30;99.90;;;;;;5125846;28;19991;-70
2023/04/19 06:55:57;;;;;;;;;;;8.30;99.90;;;;;;5125899;28;19951;-70
2023/04/19 06:58:24;;;;;;;;;;;8.30;99.90;;;;;;5125559;28;19926;-69
2023/04/19 07:00:51;;;;;;;;;;;8.30;99.90;;;;;;5125722;28;19991;-70
2023/04/19 07:03:17;;;;;;;;;;;8.30;99.90;;;;;;5125549;28;20266;-69
2023/04/19 07:05:46;;;;;;;;;;;8.20;99.90;;;;;;5125468;28;20212;-70
2023/04/19 07:08:12;;;;;;;;;;;8.30;99.90;;;;;;5124217;28;19961;-69
2023/04/19 07:10:39;;;;;;;;;;;8.20;99.90;;;;;;5124252;28;19919;-69
2023/04/19 07:13:06;;;;;;;;;;;8.30;99.90;;;;;;5125175;28;19926;-68
2023/04/19 07:15:32;;;;;;;;;;;8.30;99.90;;;;;;5125709;28;19920;-70
2023/04/19 07:17:59;;;;;;;;;;;8.30;99.90;;;;;;5124314;28;20172;-70
2023/04/19 07:20:25;;;;;;;;;;;8.40;99.90;;;;;;5125180;28;19920;-69
2023/04/19 07:22:53;;;;;;;;;;;8.40;99.90;;;;;;5124971;28;19982;-69
2023/04/19 07:25:20;;;;;;;;;;;8.50;99.90;;;;;;5124694;28;19919;-70
2023/04/19 07:27:47;;;;;;;;;;;8.60;99.90;;;;;;5124688;28;19961;-71
2023/04/19 07:30:13;;;;;;;;;;;8.60;99.90;;;;;;5125245;28;19929;-70
2023/04/19 07:32:40;;;;;;;;;;;8.70;99.90;;;;;;5125178;28;20156;-69
2023/04/19 07:35:07;;;;;;;;;;;8.80;99.90;;;;;;5124870;28;19963;-71
2023/04/19 07:37:33;;;;;;;;;;;8.90;99.90;;;;;;5124840;28;19927;-69
2023/04/19 07:40:02;;;;;;;;;;;9.00;99.90;;;;;;5124445;28;19991;-70
2023/04/19 07:42:29;;;;;;;;;;;9.00;99.90;;;;;;5125144;28;19959;-70
2023/04/19 07:44:56;;;;;;;;;;;9.00;99.90;;;;;;5124742;28;19965;-69
2023/04/19 07:47:22;;;;;;;;;;;8.90;99.90;;;;;;5124782;28;19998;-68
2023/04/19 07:49:51;;;;;;;;;;;8.90;99.90;;;;;;5124471;28;20180;-69
2023/04/19 07:52:18;;;;;;;;;;;8.90;99.90;;;;;;5120614;28;19987;-69
2023/04/19 07:54:45;;;;;;;;;;;8.90;99.90;;;;;;5103708;28;19958;-71
2023/04/19 07:57:13;;;;;;;;;;;8.90;99.90;;;;;;5104613;28;19920;-71
2023/04/19 07:59:40;;;;;;;;;;;9.00;99.90;;;;;;5104432;28;19983;-70
2023/04/19 08:02:06;;;;;;;;;;;9.00;99.90;;;;;;5121028;28;19919;-69
2023/04/19 08:04:33;;;;;;;;;;;9.00;99.90;;;;;;5124563;28;19987;-70
2023/04/19 08:07:00;;;;;;;;;;;9.00;99.90;;;;;;5124190;28;19983;-70
2023/04/19 08:09:26;;;;;;;;;;;9.10;99.90;;;;;;5124267;28;19987;-69
2023/04/19 08:11:53;;;;;;;;;;;9.00;99.90;;;;;;5124504;28;19926;-70
2023/04/19 08:14:21;;;;;;;;;;;9.10;99.90;;;;;;5124371;28;19923;-71
2023/04/19 08:16:47;;;;;;;;;;;9.10;99.90;;;;;;5124229;28;19984;-69
2023/04/19 08:19:15;;;;;;;;;;;9.10;99.90;;;;;;5124183;28;19988;-71
2023/04/19 08:21:42;;;;;;;;;;;9.10;99.90;;;;;;5124481;28;19926;-69
2023/04/19 08:24:08;;;;;;;;;;;9.10;99.90;;;;;;5107143;28;19991;-68
2023/04/19 08:26:35;;;;;;;;;;;9.10;99.90;;;;;;5124215;28;19919;-68
2023/04/19 08:29:02;;;;;;;;;;;9.00;99.90;;;;;;5123567;28;19991;-70
2023/04/19 08:31:30;;;;;;;;;;;9.00;99.90;;;;;;5124037;28;20204;-70
2023/04/19 08:33:59;;;;;;;;;;;9.00;99.90;;;;;;5124249;28;19995;-69
2023/04/19 08:36:26;;;;;;;;;;;9.00;99.90;;;;;;5123638;28;20238;-70
2023/04/19 08:38:53;;;;;;;;;;;8.90;99.90;;;;;;5124216;28;19919;-70
2023/04/19 08:41:20;;;;;;;;;;;8.80;99.90;;;;;;5123861;28;19923;-70
2023/04/19 08:43:47;;;;;;;;;;;8.80;99.90;;;;;;5122588;28;20085;-70
2023/04/19 08:46:14;;;;;;;;;;;8.70;99.90;;;;;;5103381;28;19973;-70
2023/04/19 08:48:43;;;;;;;;;;;8.70;99.90;;;;;;5103502;28;19920;-69
2023/04/19 08:51:12;;;;;;;;;;;8.70;99.90;;;;;;5103544;28;19926;-69
2023/04/19 08:53:39;;;;;;;;;;;8.80;99.90;;;;;;5103552;28;19920;-69
2023/04/19 08:56:07;;;;;;;;;;;8.80;99.90;;;;;;5103075;28;20269;-69
2023/04/19 08:58:34;;;;;;;;;;;8.80;99.90;;;;;;5103704;28;20112;-70
2023/04/19 09:01:01;;;;;;;;;;;8.80;99.90;;;;;;5103509;28;19920;-69
2023/04/19 09:03:28;;;;;;;;;;;8.70;99.90;;;;;;5103630;28;19920;-70
2023/04/19 09:05:56;;;;;;;;;;;8.70;99.90;;;;;;5104694;28;19920;-70
2023/04/19 09:08:25;;;;;;;;;;;8.70;99.90;;;;;;5107513;28;19926;-69
2023/04/19 09:10:56;;;;;;;;;;;8.70;99.90;;;;;;5107859;28;19926;-70
2023/04/19 09:13:22;;;;;;;;;;;8.60;99.90;;;;;;5128028;28;19920;-68
2023/04/19 09:15:50;;;;;;;;;;;8.60;99.90;;;;;;5127539;28;20268;-70
2023/04/19 09:18:18;;;;;;;;;;;8.50;99.90;;;;;;5127424;28;19924;-69
2023/04/19 09:20:45;;;;;;;;;;;8.50;99.90;;;;;;5127787;28;19927;-69
2023/04/19 09:23:13;;;;;;;;;;;8.40;99.90;;;;;;5126757;28;19920;-73
2023/04/19 09:25:40;;;;;;;;;;;8.30;99.90;;;;;;5127853;28;19987;-69
2023/04/19 09:28:10;;;;;;;;;;;8.30;99.90;;;;;;5107203;28;19942;-71
2023/04/19 09:30:37;;;;;;;;;;;8.30;99.90;;;;;;5107117;28;19923;-70
2023/04/19 09:33:04;;;;;;;;;;;8.30;99.90;;;;;;5106612;28;19977;-70
2023/04/19 09:35:41;;;;;;;;;;;8.20;99.90;;;;;;5115656;28;19920;-70
2023/04/19 09:38:07;;;;;;;;;;;8.20;99.90;;;;;;5106357;28;19985;-70
2023/04/19 09:40:36;;;;;;;;;;;8.10;99.90;;;;;;5105555;28;19920;-69
2023/04/19 09:43:02;;;;;;;;;;;8.10;99.90;;;;;;5125204;28;19926;-69
2023/04/19 09:45:38;;;;;;;;;;;8.10;99.90;;;;;;5127339;28;19931;-69
2023/04/19 09:48:07;;;;;;;;;;;8.10;99.90;;;;;;5127078;28;19990;-70
2023/04/19 09:50:33;;;;;;;;;;;8.10;99.90;;;;;;5121921;28;19924;-71
2023/04/19 09:53:00;;;;;;;;;;;8.10;99.90;;;;;;5106707;28;20267;-69
2023/04/19 09:55:26;;;;;;;;;;;8.00;99.90;;;;;;5106818;28;19983;-69
2023/04/19 09:57:54;;;;;;;;;;;8.00;99.90;;;;;;5106487;28;19983;-69
2023/04/19 10:00:22;;;;;;;;;;;8.00;99.90;;;;;;5106552;28;19991;-69
2023/04/19 10:02:54;;;;;;;;;;;8.00;99.90;;;;;;5106257;28;20283;-70
2023/04/19 10:05:21;;;;;;;;;;;8.00;99.90;;;;;;5106541;28;19920;-70
2023/04/19 10:07:48;;;;;;;;;;;8.00;99.90;;;;;;5105958;28;19995;-70
2023/04/19 10:10:16;;;;;;;;;;;8.10;99.90;;;;;;5106435;28;19983;-69
2023/04/19 10:12:44;;;;;;;;;;;8.10;99.90;;;;;;5106337;28;19965;-70
2023/04/19 10:15:13;;;;;;;;;;;8.10;99.90;;;;;;5105942;28;20229;-70
2023/04/19 10:17:40;;;;;;;;;;;8.10;99.90;;;;;;5105628;28;19920;-70
2023/04/19 10:20:10;;;;;;;;;;;8.10;99.90;;;;;;5106179;28;19927;-69
2023/04/19 10:22:37;;;;;;;;;;;8.10;99.90;;;;;;5106282;28;19927;-70
2023/04/19 10:25:08;;;;;;;;;;;8.20;99.90;;;;;;5106141;28;19920;-69
2023/04/19 10:27:35;;;;;;;;;;;8.20;99.90;;;;;;5105531;28;19920;-69
2023/04/19 10:30:04;;;;;;;;;;;8.20;99.90;;;;;;5105943;28;19927;-70
2023/04/19 10:32:38;;;;;;;;;;;8.10;99.90;;;;;;5105671;28;20218;-69
2023/04/19 10:35:07;;;;;;;;;;;8.20;99.90;;;;;;5105858;28;20029;-70
2023/04/19 10:37:34;;;;;;;;;;;8.10;99.90;;;;;;5105713;28;19920;-69
2023/04/19 10:40:01;;;;;;;;;;;8.10;99.90;;;;;;5105934;28;19920;-70
2023/04/19 10:42:42;;;;;;;;;;;8.20;99.90;;;;;;5105879;28;19920;-68
2023/04/19 10:45:28;;;;;;;;;;;8.20;99.90;;;;;;5104801;28;19975;-69
2023/04/19 10:47:56;;;;;;;;;;;8.30;99.90;;;;;;5105740;28;19986;-68
2023/04/19 10:50:23;;;;;;;;;;;8.40;99.90;;;;;;5105716;28;19920;-69
2023/04/19 10:52:50;;;;;;;;;;;8.40;99.90;;;;;;5105623;28;19935;-68
2023/04/19 10:55:18;;;;;;;;;;;8.40;99.90;;;;;;5105546;28;19979;-68
2023/04/19 10:58:04;;;;;;;;;;;8.40;99.90;;;;;;5105034;28;19920;-68
2023/04/19 11:00:32;;;;;;;;;;;8.40;99.90;;;;;;5105063;28;19927;-68
2023/04/19 11:03:00;;;;;;;;;;;8.30;99.90;;;;;;5104577;28;19959;-73
2023/04/19 11:05:27;;;;;;;;;;;8.40;99.90;;;;;;5103879;28;19983;-69
2023/04/19 11:07:53;;;;;;;;;;;8.30;99.90;;;;;;5103806;28;19942;-68
2023/04/19 11:10:28;;;;;;;;;;;8.30;99.90;;;;;;5104756;28;19956;-69
2023/04/19 11:12:55;;;;;;;;;;;8.40;99.90;;;;;;5105023;28;19927;-70
2023/04/19 11:15:22;;;;;;;;;;;8.40;99.90;;;;;;5105120;28;19920;-70
2023/04/19 11:17:50;;;;;;;;;;;8.60;99.90;;;;;;5104925;28;19958;-68
2023/04/19 11:20:22;;;;;;;;;;;8.70;99.90;;;;;;5104954;28;19962;-68
2023/04/19 11:22:49;;;;;;;;;;;8.80;99.90;;;;;;5104808;28;19994;-69
2023/04/19 11:25:17;;;;;;;;;;;9.00;99.90;;;;;;5104928;28;19988;-68
2023/04/19 11:27:45;;;;;;;;;;;9.20;99.90;;;;;;5103835;28;20212;-69
2023/04/19 11:30:12;;;;;;;;;;;9.40;99.90;;;;;;5104059;28;19987;-68
2023/04/19 11:32:44;;;;;;;;;;;9.50;99.90;;;;;;5104761;28;20120;-67
2023/04/19 11:35:11;;;;;;;;;;;9.60;99.90;;;;;;5104800;28;19920;-68
2023/04/19 11:37:39;;;;;;;;;;;9.80;99.90;;;;;;5104140;28;20260;-68
2023/04/19 11:40:07;;;;;;;;;;;10.00;99.90;;;;;;5104294;28;19926;-69
2023/04/19 11:42:33;;;;;;;;;;;10.10;99.90;;;;;;5103363;28;19927;-70
2023/04/19 11:45:00;;;;;;;;;;;10.20;99.90;;;;;;5103532;28;20093;-70
2023/04/19 11:47:27;;;;;;;;;;;10.20;99.90;;;;;;5103307;28;20212;-70
2023/04/19 11:49:54;;;;;;;;;;;10.20;99.90;;;;;;5104308;28;20148;-68
2023/04/19 11:52:23;;;;;;;;;;;10.50;99.90;;;;;;5103850;28;19983;-69
2023/04/19 11:54:51;;;;;;;;;;;10.90;99.90;;;;;;5103701;28;20131;-70
2023/04/19 11:57:27;;;;;;;;;;;10.90;99.90;;;;;;5104257;28;19973;-69
2023/04/19 12:00:03;;;;;;;;;;;11.00;99.90;;;;;;5104313;28;19995;-70
2023/04/19 12:02:29;;;;;;;;;;;10.90;99.90;;;;;;5104411;28;19920;-68
2023/04/19 12:05:06;;;;;;;;;;;10.80;99.90;;;;;;5103940;28;20255;-69
2023/04/19 12:07:33;;;;;;;;;;;10.70;99.90;;;;;;5103973;28;19920;-69
2023/04/19 12:10:10;;;;;;;;;;;10.70;99.90;;;;;;5104196;28;19983;-69
2023/04/19 12:12:37;;;;;;;;;;;10.70;99.90;;;;;;5104127;28;19920;-68
2023/04/19 12:15:04;;;;;;;;;;;11.10;99.90;;;;;;5103982;28;19963;-69
2023/04/19 12:17:30;;;;;;;;;;;11.60;99.90;;;;;;5103565;28;19935;-68
2023/04/19 12:19:57;;;;;;;;;;;11.80;99.90;;;;;;5104204;28;19920;-68
2023/04/19 12:22:24;;;;;;;;;;;12.00;99.90;;;;;;5103822;28;19951;-70
2023/04/19 12:24:52;;;;;;;;;;;11.90;99.90;;;;;;5104040;28;19991;-70
2023/04/19 12:27:20;;;;;;;;;;;11.80;99.90;;;;;;5103616;28;19959;-70
2023/04/19 12:29:46;;;;;;;;;;;11.70;99.90;;;;;;5103903;28;20197;-69
2023/04/19 12:32:14;;;;;;;;;;;11.70;99.90;;;;;;5103764;28;19981;-71
2023/04/19 12:34:41;;;;;;;;;;;11.90;99.90;;;;;;5103457;28;19927;-70
2023/04/19 12:37:08;;;;;;;;;;;11.90;99.90;;;;;;5103587;28;19920;-70
2023/04/19 12:39:34;;;;;;;;;;;11.90;99.90;;;;;;5103608;28;19983;-69
2023/04/19 12:42:01;;;;;;;;;;;11.80;99.90;;;;;;5103821;28;19960;-72
2023/04/19 12:44:29;;;;;;;;;;;11.80;99.90;;;;;;5103600;28;20112;-69
2023/04/19 12:46:56;;;;;;;;;;;11.80;99.90;;;;;;5102604;28;19920;-69
2023/04/19 12:49:23;;;;;;;;;;;11.60;99.90;;;;;;5103609;28;19987;-68
2023/04/19 12:51:49;;;;;;;;;;;11.60;99.90;;;;;;5103601;28;19926;-69
2023/04/19 12:54:16;;;;;;;;;;;11.70;99.90;;;;;;5103416;28;19951;-69
2023/04/19 12:56:42;;;;;;;;;;;12.00;99.90;;;;;;5103340;28;20176;-68
2023/04/19 12:59:10;;;;;;;;;;;12.10;99.90;;;;;;5103175;28;19921;-69
2023/04/19 13:01:38;;;;;;;;;;;12.10;99.90;;;;;;5103496;28;19919;-70
2023/04/19 13:04:06;;;;;;;;;;;12.00;99.90;;;;;;5103594;28;19924;-68
2023/04/19 13:06:33;;;;;;;;;;;12.00;99.90;;;;;;5103294;28;19920;-69
2023/04/19 13:08:59;;;;;;;;;;;12.00;99.90;;;;;;5103286;28;20188;-70
2023/04/19 13:11:26;;;;;;;;;;;12.10;99.90;;;;;;5103430;28;19920;-69
2023/04/19 13:13:52;;;;;;;;;;;12.10;99.90;;;;;;5103391;28;19927;-69
2023/04/19 13:16:19;;;;;;;;;;;12.10;99.90;;;;;;5103187;28;19963;-69
2023/04/19 13:18:48;;;;;;;;;;;12.20;99.90;;;;;;5103133;28;20230;-69
2023/04/19 13:21:14;;;;;;;;;;;12.30;99.90;;;;;;5103290;28;19987;-69
2023/04/19 13:23:42;;;;;;;;;;;12.20;99.90;;;;;;5112546;28;19924;-69
2023/04/19 13:26:09;;;;;;;;;;;12.00;99.90;;;;;;5123163;28;20212;-72
2023/04/19 13:28:36;;;;;;;;;;;12.10;99.90;;;;;;5123528;28;19927;-71
2023/04/19 13:31:03;;;;;;;;;;;12.30;99.90;;;;;;5123182;28;19920;-71
2023/04/19 13:33:29;;;;;;;;;;;12.70;99.90;;;;;;5123583;28;19962;-70
2023/04/19 13:35:57;;;;;;;;;;;13.00;99.90;;;;;;5123539;28;19982;-71
2023/04/19 13:38:24;;;;;;;;;;;13.10;99.90;;;;;;5122769;28;19920;-69
2023/04/19 13:40:51;;;;;;;;;;;12.80;99.90;;;;;;5123640;28;19920;-72
2023/04/19 13:43:17;;;;;;;;;;;12.50;99.90;;;;;;5123142;28;20208;-69
2023/04/19 13:45:44;;;;;;;;;;;12.50;99.90;;;;;;5123436;28;19986;-71
2023/04/19 13:48:11;;;;;;;;;;;13.00;99.90;;;;;;5123470;28;19920;-69
2023/04/19 13:50:37;;;;;;;;;;;13.50;99.90;;;;;;5110434;28;19955;-68
2023/04/19 13:53:05;;;;;;;;;;;13.40;99.90;;;;;;5106245;28;19926;-69
2023/04/19 13:55:32;;;;;;;;;;;13.00;99.90;;;;;;5106589;28;19919;-68
2023/04/19 13:57:59;;;;;;;;;;;12.70;99.90;;;;;;5106429;28;19982;-68
2023/04/19 14:00:26;;;;;;;;;;;12.80;99.90;;;;;;5106636;28;19959;-69
2023/04/19 14:02:54;;;;;;;;;;;12.60;99.90;;;;;;5106284;28;19920;-68
2023/04/19 14:05:20;;;;;;;;;;;12.40;99.90;;;;;;5106264;28;20230;-68
2023/04/19 14:07:47;;;;;;;;;;;12.40;99.90;;;;;;5106163;28;19920;-69
2023/04/19 14:10:15;;;;;;;;;;;12.70;99.90;;;;;;5106459;28;19958;-68
2023/04/19 14:12:42;;;;;;;;;;;13.00;99.90;;;;;;5106062;28;19920;-67
2023/04/19 14:15:09;;;;;;;;;;;13.30;99.90;;;;;;5106066;28;19983;-68
2023/04/19 14:17:35;;;;;;;;;;;13.20;99.90;;;;;;5106013;28;19958;-68
2023/04/19 14:20:02;;;;;;;;;;;13.30;99.90;;;;;;5106260;28;19920;-68
2023/04/19 14:22:30;;;;;;;;;;;13.20;99.90;;;;;;5106094;28;19926;-68
2023/04/19 14:24:57;;;;;;;;;;;13.30;99.90;;;;;;5105961;28;20115;-68
2023/04/19 14:27:26;;;;;;;;;;;13.50;99.90;;;;;;5105558;28;19963;-68
2023/04/19 14:29:52;;;;;;;;;;;13.70;99.90;;;;;;5105919;28;19937;-68